NCR YBAF-YBCG
Flight info
| Callsign | NCR |
|---|---|
| Flight time | N/A |
| Altitude | 3500 |
| Route | WTBG/N0151F010 DCT PTI DCT YRED DCT PRP/N0151F035 DCT Q1 |
| Aircraft | C206/L-SDGRY/S |
Departure
| Time | 2026-04-17 02:36 |
|---|---|
| Airport | Brisbane Archerfield Airport (YBAF) |
Arrival
| Time | N/A |
|---|---|
| Airport | Gold Coast Airport (YBCG) |
| Time | Latitude | Longitude | Altitude | Speed | Heading |
|---|---|---|---|---|---|
| 2026-04-17 02:25 | -27.57210 | 153.01180 | 70 ft | 0 kts | 197° |
| 2026-04-17 02:31 | -27.57217 | 153.01178 | 70 ft | 1 kts | 198° |
| 2026-04-17 02:31 | -27.57238 | 153.01169 | 70 ft | 7 kts | 204° |
| 2026-04-17 02:32 | -27.57277 | 153.01128 | 70 ft | 8 kts | 300° |
| 2026-04-17 02:32 | -27.57218 | 153.01137 | 70 ft | 9 kts | 11° |
| 2026-04-17 02:32 | -27.57187 | 153.01090 | 70 ft | 9 kts | 258° |
| 2026-04-17 02:32 | -27.57207 | 153.00998 | 70 ft | 12 kts | 256° |
| 2026-04-17 02:33 | -27.57229 | 153.00897 | 70 ft | 13 kts | 258° |
| 2026-04-17 02:33 | -27.57250 | 153.00789 | 70 ft | 12 kts | 274° |
| 2026-04-17 02:33 | -27.57223 | 153.00691 | 70 ft | 13 kts | 284° |
| 2026-04-17 02:33 | -27.57192 | 153.00583 | 70 ft | 15 kts | 287° |
| 2026-04-17 02:34 | -27.57161 | 153.00475 | 70 ft | 14 kts | 291° |
| 2026-04-17 02:34 | -27.57129 | 153.00362 | 70 ft | 14 kts | 288° |
| 2026-04-17 02:34 | -27.57100 | 153.00255 | 70 ft | 13 kts | 285° |
| 2026-04-17 02:34 | -27.57069 | 153.00212 | 70 ft | 7 kts | 42° |
| 2026-04-17 02:35 | -27.56980 | 153.00348 | 71 ft | 46 kts | 51° |
| 2026-04-17 02:35 | -27.56756 | 153.00748 | 177 ft | 69 kts | 54° |
| 2026-04-17 02:35 | -27.56067 | 153.01601 | 519 ft | 75 kts | 8° |
| 2026-04-17 02:36 | -27.55578 | 153.01469 | 666 ft | 78 kts | 317° |
| 2026-04-17 02:36 | -27.55399 | 153.00876 | 797 ft | 91 kts | 259° |
| 2026-04-17 02:36 | -27.55835 | 153.00314 | 915 ft | 104 kts | 214° |
| 2026-04-17 02:36 | -27.56482 | 152.99867 | 956 ft | 112 kts | 206° |
| 2026-04-17 02:37 | -27.57254 | 152.99854 | 1037 ft | 116 kts | 156° |
| 2026-04-17 02:37 | -27.57812 | 153.00488 | 1136 ft | 114 kts | 112° |
| 2026-04-17 02:37 | -27.58008 | 153.01309 | 1308 ft | 104 kts | 78° |
| 2026-04-17 02:37 | -27.57593 | 153.01898 | 1394 ft | 99 kts | 14° |
| 2026-04-17 02:38 | -27.56907 | 153.01875 | 1480 ft | 99 kts | 353° |
| 2026-04-17 02:38 | -27.56215 | 153.01959 | 1601 ft | 100 kts | 9° |
| 2026-04-17 02:38 | -27.55541 | 153.02158 | 1715 ft | 101 kts | 11° |
| 2026-04-17 02:38 | -27.54871 | 153.02429 | 1808 ft | 104 kts | 17° |
| 2026-04-17 02:39 | -27.54174 | 153.02626 | 1908 ft | 102 kts | 4° |
| 2026-04-17 02:39 | -27.53456 | 153.02799 | 1969 ft | 108 kts | 9° |
| 2026-04-17 02:39 | -27.52683 | 153.03003 | 1955 ft | 116 kts | 10° |
| 2026-04-17 02:39 | -27.51893 | 153.03233 | 1960 ft | 119 kts | 11° |
| 2026-04-17 02:40 | -27.51085 | 153.03450 | 1963 ft | 119 kts | 3° |
| 2026-04-17 02:40 | -27.50251 | 153.03455 | 1968 ft | 118 kts | 356° |
| 2026-04-17 02:40 | -27.49422 | 153.03421 | 1971 ft | 119 kts | 355° |
| 2026-04-17 02:40 | -27.48590 | 153.03384 | 1970 ft | 119 kts | 355° |
| 2026-04-17 02:41 | -27.47767 | 153.03320 | 1977 ft | 118 kts | 347° |
| 2026-04-17 02:41 | -27.46932 | 153.03235 | 1973 ft | 121 kts | 0° |
| 2026-04-17 02:41 | -27.46088 | 153.03337 | 1970 ft | 122 kts | 4° |
| 2026-04-17 02:41 | -27.45246 | 153.03482 | 1972 ft | 122 kts | 6° |
| 2026-04-17 02:42 | -27.44409 | 153.03621 | 1972 ft | 122 kts | 5° |
| 2026-04-17 02:42 | -27.43562 | 153.03749 | 1974 ft | 123 kts | 4° |
| 2026-04-17 02:42 | -27.42708 | 153.03873 | 1969 ft | 122 kts | 4° |
| 2026-04-17 02:42 | -27.41857 | 153.03990 | 1970 ft | 122 kts | 4° |
| 2026-04-17 02:43 | -27.41007 | 153.04105 | 1971 ft | 122 kts | 3° |
| 2026-04-17 02:43 | -27.40169 | 153.04217 | 1971 ft | 122 kts | 3° |
| 2026-04-17 02:43 | -27.39322 | 153.04329 | 1969 ft | 122 kts | 4° |
| 2026-04-17 02:43 | -27.38477 | 153.04442 | 1972 ft | 122 kts | 3° |
| 2026-04-17 02:44 | -27.37625 | 153.04553 | 1972 ft | 122 kts | 3° |
| 2026-04-17 02:44 | -27.36779 | 153.04665 | 1971 ft | 122 kts | 4° |
| 2026-04-17 02:44 | -27.35929 | 153.04774 | 1970 ft | 122 kts | 5° |
| 2026-04-17 02:44 | -27.35089 | 153.04886 | 1968 ft | 122 kts | 4° |
| 2026-04-17 02:45 | -27.34240 | 153.04997 | 1972 ft | 122 kts | 5° |
| 2026-04-17 02:45 | -27.33393 | 153.05109 | 1969 ft | 122 kts | 5° |
| 2026-04-17 02:45 | -27.32538 | 153.05220 | 1967 ft | 122 kts | 4° |
| 2026-04-17 02:45 | -27.31695 | 153.05331 | 1969 ft | 122 kts | 4° |
| 2026-04-17 02:46 | -27.30844 | 153.05441 | 1973 ft | 122 kts | 5° |
| 2026-04-17 02:46 | -27.29992 | 153.05553 | 1972 ft | 122 kts | 4° |
| 2026-04-17 02:46 | -27.29155 | 153.05664 | 1967 ft | 121 kts | 4° |
| 2026-04-17 02:46 | -27.28305 | 153.05772 | 1969 ft | 121 kts | 4° |
| 2026-04-17 02:47 | -27.27460 | 153.05875 | 1962 ft | 121 kts | 4° |
| 2026-04-17 02:47 | -27.26624 | 153.05972 | 1962 ft | 121 kts | 3° |
| 2026-04-17 02:47 | -27.25782 | 153.06085 | 1957 ft | 121 kts | 4° |
| 2026-04-17 02:47 | -27.24932 | 153.06187 | 1958 ft | 121 kts | 3° |
| 2026-04-17 02:48 | -27.24090 | 153.06332 | 1937 ft | 124 kts | 10° |
| 2026-04-17 02:48 | -27.23298 | 153.06532 | 1946 ft | 106 kts | 12° |
| 2026-04-17 02:48 | -27.22643 | 153.06856 | 1845 ft | 108 kts | 34° |
| 2026-04-17 02:48 | -27.22102 | 153.07426 | 1486 ft | 106 kts | 45° |
| 2026-04-17 02:49 | -27.21599 | 153.08026 | 1073 ft | 105 kts | 43° |
| 2026-04-17 02:49 | -27.21057 | 153.08534 | 670 ft | 99 kts | 24° |
| 2026-04-17 02:49 | -27.20596 | 153.08194 | 321 ft | 94 kts | 292° |
| 2026-04-17 02:49 | -27.20449 | 153.07527 | 78 ft | 84 kts | 278° |
| 2026-04-17 02:50 | -27.20542 | 153.06932 | 14 ft | 74 kts | 256° |
| 2026-04-17 02:50 | -27.20700 | 153.06277 | 177 ft | 93 kts | 256° |
| 2026-04-17 02:50 | -27.20862 | 153.05568 | 441 ft | 96 kts | 262° |
| 2026-04-17 02:50 | -27.20751 | 153.04839 | 596 ft | 97 kts | 305° |
| 2026-04-17 02:51 | -27.20226 | 153.04408 | 748 ft | 94 kts | 349° |
| 2026-04-17 02:51 | -27.19608 | 153.04605 | 849 ft | 100 kts | 39° |
| 2026-04-17 02:51 | -27.19312 | 153.05339 | 908 ft | 111 kts | 84° |
| 2026-04-17 02:51 | -27.19390 | 153.06227 | 939 ft | 118 kts | 93° |
| 2026-04-17 02:52 | -27.19508 | 153.07163 | 960 ft | 122 kts | 94° |
| 2026-04-17 02:52 | -27.19527 | 153.08110 | 1008 ft | 121 kts | 83° |
| 2026-04-17 02:52 | -27.19432 | 153.09052 | 1041 ft | 121 kts | 79° |
| 2026-04-17 02:52 | -27.19590 | 153.09943 | 1181 ft | 118 kts | 120° |
| 2026-04-17 02:53 | -27.20246 | 153.10490 | 1324 ft | 117 kts | 153° |
| 2026-04-17 02:53 | -27.21016 | 153.10777 | 1466 ft | 114 kts | 171° |
| 2026-04-17 02:53 | -27.21759 | 153.10953 | 1694 ft | 106 kts | 166° |
| 2026-04-17 02:53 | -27.22461 | 153.11139 | 1921 ft | 101 kts | 168° |
| 2026-04-17 02:54 | -27.23156 | 153.11316 | 2095 ft | 104 kts | 168° |
| 2026-04-17 02:54 | -27.23872 | 153.11496 | 2262 ft | 106 kts | 169° |
| 2026-04-17 02:54 | -27.24598 | 153.11678 | 2434 ft | 107 kts | 169° |
| 2026-04-17 02:54 | -27.25321 | 153.11859 | 2601 ft | 107 kts | 168° |
| 2026-04-17 02:55 | -27.26055 | 153.12042 | 2771 ft | 108 kts | 169° |
| 2026-04-17 02:55 | -27.26801 | 153.12227 | 2941 ft | 110 kts | 169° |
| 2026-04-17 02:55 | -27.27549 | 153.12413 | 3105 ft | 111 kts | 169° |
| 2026-04-17 02:55 | -27.28311 | 153.12602 | 3271 ft | 112 kts | 171° |
| 2026-04-17 02:56 | -27.29070 | 153.12791 | 3438 ft | 113 kts | 170° |
| 2026-04-17 02:56 | -27.29839 | 153.12982 | 3606 ft | 113 kts | 169° |
| 2026-04-17 02:56 | -27.30611 | 153.13171 | 3773 ft | 113 kts | 169° |
| 2026-04-17 02:56 | -27.31385 | 153.13364 | 3940 ft | 114 kts | 171° |
| 2026-04-17 02:57 | -27.32152 | 153.13553 | 4106 ft | 114 kts | 171° |
| 2026-04-17 02:57 | -27.32939 | 153.13748 | 4275 ft | 115 kts | 170° |
| 2026-04-17 02:57 | -27.33715 | 153.13939 | 4441 ft | 115 kts | 171° |
| 2026-04-17 02:57 | -27.34499 | 153.14133 | 4608 ft | 115 kts | 171° |
| 2026-04-17 02:58 | -27.35288 | 153.14328 | 4776 ft | 116 kts | 171° |
| 2026-04-17 02:58 | -27.36084 | 153.14525 | 4945 ft | 116 kts | 171° |
| 2026-04-17 02:58 | -27.36877 | 153.14720 | 5111 ft | 116 kts | 171° |
| 2026-04-17 02:58 | -27.37659 | 153.14914 | 5274 ft | 116 kts | 171° |
| 2026-04-17 02:59 | -27.38457 | 153.15109 | 5408 ft | 119 kts | 172° |
| 2026-04-17 02:59 | -27.38744 | 153.15179 | 5423 ft | 122 kts | 172° |